aviador You're here:

KENW Decoded Metar

KENOSHA in WI, USA
Report Time2017-09-23 19:53:00
UTC Time2017-09-23 20:05:28
Flight Rules vfr VFR
Wind130° at 12 kt
W.Decomp.*RWY 15: 11.4 kt HW 3.7 kt LCW
RWY 07: 5.6 kt HW 10.6 kt RCW
W.Rank130° ranks 21
Current wind is above 130° avg. (7.9)
Visibility9999 m
Phenomena:N/A
Clouds:N/A
Expected CloudBase > 5,200 ft AGL from Temp-Dew spread
CeilingNone
Temp32°C (ISA +18)
Dew Point19°C (46% RH)
Heat Index33.5°C
AAT30.9°C
QNH1018 hPa
Density Alt2,946 ft
Elevation719 ft
Report Wrong Elevation
Raw Report
KENW 231953Z 13012KT 10SM CLR 32/19 A3007 RMK AO2 SLP177
T03220189=

Extra information for KENW:More info

Metar Taf Metar & Taf Last 4 Metars F.Rules Stats Wind Profile Meteogram Temp Stats Airport Information Weather charts Add Link Nearby VenuesMetar ALERT Operation Metar Decoded Social comments

AIRNAV info for KENW